createdAt,value
2022-12-31T00:01:32.793Z,102077.64
2022-12-31T00:04:01.261Z,102080.28
2022-12-31T00:06:36.252Z,102090.73
2022-12-31T00:09:06.957Z,102094.69
2022-12-31T00:11:36.736Z,102089.72
2022-12-31T00:14:05.810Z,102078.26
2022-12-31T00:16:37.505Z,102072.53
2022-12-31T00:19:07.840Z,102077.13
2022-12-31T00:21:37.537Z,102081.29
2022-12-31T00:24:07.136Z,102078.55
2022-12-31T00:26:35.702Z,102078.45
2022-12-31T00:29:05.253Z,102072.76
2022-12-31T00:31:36.275Z,102070.39
2022-12-31T00:34:05.720Z,102071.16
2022-12-31T00:36:38.819Z,102074.33
2022-12-31T00:39:08.316Z,102075.34
2022-12-31T00:41:37.853Z,102069.04
2022-12-31T00:44:06.184Z,102071.04
2022-12-31T00:49:03.207Z,102079.55
2022-12-31T00:51:31.637Z,102075.88
2022-12-31T00:54:00.259Z,102071.05
2022-12-31T00:56:30.704Z,102062.10
2022-12-31T00:59:00.356Z,102061.68
2022-12-31T01:01:31.967Z,102066.77
2022-12-31T01:04:07.705Z,102074.38
2022-12-31T01:06:36.577Z,102076.76
2022-12-31T01:09:09.822Z,102078.06
2022-12-31T01:11:38.291Z,102072.56
2022-12-31T01:14:08.778Z,102069.66
2022-12-31T01:16:46.399Z,102069.83
2022-12-31T01:19:22.310Z,102070.45
2022-12-31T01:21:52.475Z,102074.46
2022-12-31T01:24:21.485Z,102071.10
2022-12-31T01:26:49.763Z,102075.76
2022-12-31T01:29:18.251Z,102076.11
2022-12-31T01:31:46.497Z,102075.42
2022-12-31T01:34:14.708Z,102073.79
2022-12-31T01:36:43.175Z,102068.73
2022-12-31T01:39:12.423Z,102068.57
2022-12-31T01:41:43.889Z,102064.53
2022-12-31T01:44:11.992Z,102066.02
2022-12-31T01:46:49.923Z,102069.80
2022-12-31T01:49:45.138Z,102070.71
2022-12-31T01:52:28.541Z,102075.33
2022-12-31T01:55:15.046Z,102080.73
2022-12-31T01:57:46.856Z,102079.11
2022-12-31T02:00:16.396Z,102076.53
2022-12-31T02:02:44.765Z,102082.68
2022-12-31T02:05:33.285Z,102082.18
2022-12-31T02:08:03.118Z,102083.40
2022-12-31T02:10:31.272Z,102082.77
2022-12-31T02:13:00.204Z,102082.16
2022-12-31T02:15:58.305Z,102078.88
2022-12-31T02:18:47.091Z,102086.41
2022-12-31T02:21:41.923Z,102081.81
2022-12-31T02:24:16.112Z,102085.83
2022-12-31T02:26:56.395Z,102086.00
2022-12-31T02:29:30.309Z,102080.48
2022-12-31T02:32:05.425Z,102076.20
2022-12-31T02:34:58.448Z,102078.29
2022-12-31T02:37:31.672Z,102074.46
2022-12-31T02:40:00.928Z,102070.94
2022-12-31T02:42:29.143Z,102067.57
2022-12-31T02:44:57.339Z,102062.61
2022-12-31T02:47:50.467Z,102066.60
2022-12-31T02:50:36.269Z,102067.42
2022-12-31T02:53:34.337Z,102068.80
2022-12-31T02:56:22.673Z,102058.04
2022-12-31T02:58:54.294Z,102059.67
2022-12-31T03:01:33.004Z,102061.84
2022-12-31T03:04:03.424Z,102056.86
2022-12-31T03:06:31.998Z,102056.58
2022-12-31T03:09:03.243Z,102053.05
2022-12-31T03:11:31.807Z,102050.73
2022-12-31T03:14:00.035Z,102050.08
2022-12-31T03:16:28.453Z,102044.45
2022-12-31T03:18:56.835Z,102042.86
2022-12-31T03:21:25.330Z,102036.91
2022-12-31T03:23:54.995Z,102036.42
2022-12-31T03:26:24.433Z,102037.13
2022-12-31T03:28:52.883Z,102038.61
2022-12-31T03:31:25.126Z,102038.39
2022-12-31T03:33:53.580Z,102038.89
2022-12-31T03:36:25.133Z,102036.58
2022-12-31T03:38:53.826Z,102041.91
2022-12-31T03:41:22.026Z,102040.70
2022-12-31T03:43:53.218Z,102040.73
2022-12-31T03:46:23.816Z,102039.42
2022-12-31T03:48:52.567Z,102038.16
2022-12-31T03:51:23.934Z,102036.24
2022-12-31T03:53:52.223Z,102038.52
2022-12-31T03:56:20.891Z,102037.67
2022-12-31T03:58:51.952Z,102040.66
2022-12-31T04:01:21.469Z,102037.16
2022-12-31T04:03:51.365Z,102038.24
2022-12-31T04:06:20.194Z,102041.42
2022-12-31T04:08:53.171Z,102043.13
2022-12-31T04:11:21.869Z,102045.02
2022-12-31T04:13:50.541Z,102039.06
2022-12-31T04:16:19.323Z,102037.94
2022-12-31T04:18:47.923Z,102030.98
2022-12-31T04:21:16.535Z,102021.91
2022-12-31T04:23:44.830Z,102017.03
2022-12-31T04:26:13.427Z,102014.04
2022-12-31T04:28:41.686Z,102014.89
2022-12-31T04:31:10.410Z,102016.98
2022-12-31T04:33:38.734Z,102017.28
2022-12-31T04:36:08.668Z,102024.28
2022-12-31T04:38:37.149Z,102025.60
2022-12-31T04:41:05.729Z,102024.33
2022-12-31T04:43:34.174Z,102024.94
2022-12-31T04:46:02.860Z,102024.27
2022-12-31T04:48:31.627Z,102025.20
2022-12-31T04:51:00.152Z,102025.44
2022-12-31T04:53:29.087Z,102023.73
2022-12-31T04:55:57.638Z,102025.17
2022-12-31T04:58:25.949Z,102031.35
2022-12-31T05:00:54.686Z,102031.41
2022-12-31T05:03:25.381Z,102030.13
2022-12-31T05:05:54.608Z,102033.06
2022-12-31T05:08:22.986Z,102034.48
2022-12-31T05:10:51.568Z,102033.53
2022-12-31T05:13:20.165Z,102036.09
2022-12-31T05:15:48.906Z,102036.42
2022-12-31T05:18:18.403Z,102044.23
2022-12-31T05:20:48.453Z,102046.59
2022-12-31T05:23:19.745Z,102054.27
2022-12-31T05:25:48.948Z,102052.80
2022-12-31T05:28:18.433Z,102050.44
2022-12-31T05:30:50.465Z,102049.21
2022-12-31T05:33:19.188Z,102052.79
2022-12-31T05:35:47.683Z,102056.84
2022-12-31T05:38:16.153Z,102055.45
2022-12-31T05:40:44.984Z,102063.63
2022-12-31T05:43:13.212Z,102068.38
2022-12-31T05:45:41.584Z,102075.25
2022-12-31T05:48:09.804Z,102077.11
2022-12-31T05:50:38.057Z,102083.64
2022-12-31T05:53:06.361Z,102084.86
2022-12-31T05:55:34.599Z,102078.56
2022-12-31T05:58:02.764Z,102073.61
2022-12-31T06:00:31.153Z,102072.05
2022-12-31T06:02:59.471Z,102074.01
2022-12-31T06:05:27.791Z,102069.70
2022-12-31T06:07:56.511Z,102067.39
2022-12-31T06:10:24.987Z,102063.48
2022-12-31T06:12:53.180Z,102068.38
2022-12-31T06:15:21.465Z,102062.99
2022-12-31T06:17:49.764Z,102065.05
2022-12-31T06:20:18.047Z,102063.45
2022-12-31T06:22:46.592Z,102074.37
2022-12-31T06:25:15.045Z,102070.38
2022-12-31T06:27:43.283Z,102068.43
2022-12-31T06:30:12.520Z,102068.80
2022-12-31T06:32:40.867Z,102068.35
2022-12-31T06:35:11.323Z,102069.08
2022-12-31T06:37:39.594Z,102074.17
2022-12-31T06:40:08.504Z,102075.70
2022-12-31T06:42:36.806Z,102072.02
2022-12-31T06:45:05.844Z,102070.67
2022-12-31T06:47:34.473Z,102069.66
2022-12-31T06:50:02.618Z,102072.11
2022-12-31T06:52:31.086Z,102072.33
2022-12-31T06:54:59.594Z,102071.96
2022-12-31T06:57:28.117Z,102067.31
2022-12-31T06:59:57.185Z,102066.95
2022-12-31T07:02:50.659Z,102070.59
2022-12-31T07:05:51.491Z,102073.02
2022-12-31T07:08:31.447Z,102076.42
2022-12-31T07:11:18.290Z,102075.19
2022-12-31T07:14:01.451Z,102077.05
2022-12-31T07:17:03.649Z,102083.05
2022-12-31T07:19:58.161Z,102083.42
2022-12-31T07:22:26.731Z,102087.23
2022-12-31T07:24:55.669Z,102090.30
2022-12-31T07:28:10.601Z,102088.23
2022-12-31T07:31:07.829Z,102088.46
2022-12-31T07:33:51.784Z,102087.20
2022-12-31T07:36:29.846Z,102089.27
2022-12-31T07:39:15.790Z,102089.50
2022-12-31T07:41:44.000Z,102090.92
2022-12-31T07:44:34.051Z,102094.48
2022-12-31T07:47:05.538Z,102096.67
2022-12-31T07:49:34.650Z,102094.45
2022-12-31T07:52:03.335Z,102096.60
2022-12-31T07:54:31.600Z,102092.31
2022-12-31T07:57:00.335Z,102093.23
2022-12-31T08:00:09.020Z,102098.26
2022-12-31T08:03:00.392Z,102102.92
2022-12-31T08:05:59.494Z,102106.59
2022-12-31T08:08:47.850Z,102111.43
2022-12-31T08:11:30.822Z,102110.64
2022-12-31T08:14:01.951Z,102108.86
2022-12-31T08:16:30.629Z,102116.82
2022-12-31T08:18:59.288Z,102119.07
2022-12-31T08:21:36.569Z,102124.45
2022-12-31T08:24:35.139Z,102123.73
2022-12-31T08:27:04.006Z,102124.91
2022-12-31T08:29:50.678Z,102129.44
2022-12-31T08:32:41.096Z,102130.09
2022-12-31T08:35:40.750Z,102131.13
2022-12-31T08:38:21.359Z,102137.88
2022-12-31T08:41:04.643Z,102146.33
2022-12-31T08:44:05.332Z,102152.85
2022-12-31T08:46:42.699Z,102157.88
2022-12-31T08:49:11.299Z,102163.05
2022-12-31T08:51:39.783Z,102163.02
2022-12-31T08:54:11.315Z,102166.70
2022-12-31T08:56:50.333Z,102174.84
2022-12-31T08:59:22.235Z,102176.02
2022-12-31T09:02:17.763Z,102180.38
2022-12-31T09:04:48.970Z,102186.21
2022-12-31T09:07:23.124Z,102186.27
2022-12-31T09:10:18.389Z,102190.59
2022-12-31T09:13:05.811Z,102187.59
2022-12-31T09:15:42.208Z,102187.90
2022-12-31T09:18:12.500Z,102194.04
2022-12-31T09:20:43.751Z,102188.80
2022-12-31T09:23:14.139Z,102197.08
2022-12-31T09:25:53.862Z,102203.95
2022-12-31T09:29:01.879Z,102206.40
2022-12-31T09:31:38.881Z,102212.96
2022-12-31T09:34:25.292Z,102214.30
2022-12-31T09:36:59.230Z,102220.10
2022-12-31T09:39:45.623Z,102225.87
2022-12-31T09:42:13.591Z,102226.27
2022-12-31T09:45:06.352Z,102225.27
2022-12-31T09:47:52.867Z,102230.64
2022-12-31T09:50:43.150Z,102229.84
2022-12-31T09:53:17.049Z,102225.85
2022-12-31T09:55:48.144Z,102220.30
2022-12-31T09:58:34.697Z,102223.53
2022-12-31T10:01:19.272Z,102221.13
2022-12-31T10:04:08.733Z,102220.67
2022-12-31T10:07:05.354Z,102219.94
2022-12-31T10:09:50.098Z,102221.05
2022-12-31T10:12:30.931Z,102212.76
2022-12-31T10:15:05.027Z,102206.95
2022-12-31T10:18:02.406Z,102208.65
2022-12-31T10:20:51.346Z,102206.27
2022-12-31T10:23:44.702Z,102210.49
2022-12-31T10:26:29.394Z,102207.96
2022-12-31T10:29:25.508Z,102205.12
2022-12-31T10:31:53.664Z,102204.40
2022-12-31T10:34:37.100Z,102202.11
2022-12-31T10:37:11.221Z,102198.30
2022-12-31T10:39:48.736Z,102194.34
2022-12-31T10:42:55.021Z,102192.46
2022-12-31T10:45:34.689Z,102188.59
2022-12-31T10:48:28.713Z,102185.29
2022-12-31T10:51:20.946Z,102187.39
2022-12-31T10:54:26.820Z,102185.05
2022-12-31T10:57:12.764Z,102179.34
2022-12-31T10:59:53.396Z,102174.06
2022-12-31T11:02:40.699Z,102175.52
2022-12-31T11:05:12.026Z,102172.48
2022-12-31T11:08:02.321Z,102168.15
2022-12-31T11:11:01.668Z,102162.59
2022-12-31T11:13:48.837Z,102156.54
2022-12-31T11:16:34.487Z,102149.27
2022-12-31T11:19:31.215Z,102144.94
2022-12-31T11:22:29.863Z,102133.86
2022-12-31T11:25:16.275Z,102130.46
2022-12-31T11:28:09.682Z,102125.23
2022-12-31T11:31:06.436Z,102119.63
2022-12-31T11:34:02.627Z,102109.67
2022-12-31T11:36:49.905Z,102109.61
2022-12-31T11:39:31.396Z,102100.90
2022-12-31T11:42:20.385Z,102093.92
2022-12-31T11:45:04.688Z,102094.60
2022-12-31T11:48:28.993Z,102088.58
2022-12-31T11:51:09.931Z,102091.27
2022-12-31T11:54:19.028Z,102092.55
2022-12-31T11:57:25.038Z,102080.77
2022-12-31T11:59:59.341Z,102082.38
2022-12-31T12:02:38.214Z,102078.13
2022-12-31T12:05:10.918Z,102076.47
2022-12-31T12:07:39.899Z,102077.25
2022-12-31T12:10:33.550Z,102073.76
2022-12-31T12:13:15.066Z,102070.04
2022-12-31T12:15:50.399Z,102073.38
2022-12-31T12:18:42.355Z,102068.49
2022-12-31T12:21:14.725Z,102069.41
2022-12-31T12:24:17.631Z,102058.21
2022-12-31T12:26:48.711Z,102060.22
2022-12-31T12:29:30.574Z,102062.29
2022-12-31T12:32:16.293Z,102057.06
2022-12-31T12:34:49.664Z,102057.39
2022-12-31T12:37:38.713Z,102058.42
2022-12-31T12:40:22.881Z,102050.33
2022-12-31T12:42:53.688Z,102045.22
2022-12-31T12:45:26.220Z,102044.92
2022-12-31T12:48:08.015Z,102041.29
2022-12-31T12:50:44.016Z,102040.48
2022-12-31T12:53:20.249Z,102037.14
2022-12-31T12:56:38.011Z,102033.55
2022-12-31T12:59:09.216Z,102035.04
2022-12-31T13:01:42.777Z,102023.98
2022-12-31T13:04:33.996Z,102026.08
2022-12-31T13:07:10.017Z,102028.91
2022-12-31T13:10:20.123Z,102027.73
2022-12-31T13:16:01.613Z,102028.33
2022-12-31T13:19:14.150Z,102024.13
2022-12-31T13:21:53.541Z,102017.95
2022-12-31T13:24:48.311Z,102027.77
2022-12-31T13:27:28.940Z,102027.05
2022-12-31T13:30:05.095Z,102026.17
2022-12-31T13:32:45.258Z,102021.52
2022-12-31T13:35:35.075Z,102017.27
2022-12-31T13:38:29.824Z,102014.77
2022-12-31T13:40:58.128Z,102013.44
2022-12-31T13:43:35.546Z,102014.80
2022-12-31T13:46:13.597Z,102018.20
2022-12-31T13:49:10.417Z,102015.39
2022-12-31T13:51:53.763Z,102010.64
2022-12-31T13:54:22.034Z,102017.38
2022-12-31T13:56:52.376Z,102011.88
2022-12-31T13:59:43.501Z,102018.10
2022-12-31T14:02:41.332Z,102016.28
2022-12-31T14:05:12.728Z,102015.38
2022-12-31T14:08:02.131Z,102017.79
2022-12-31T14:10:39.402Z,102020.89
2022-12-31T14:13:22.927Z,102019.36
2022-12-31T14:16:17.277Z,102020.52
2022-12-31T14:19:12.313Z,102024.25
2022-12-31T14:22:04.247Z,102014.35
2022-12-31T14:24:44.126Z,102026.36
2022-12-31T14:27:24.855Z,102026.85
2022-12-31T14:30:06.656Z,102026.36
2022-12-31T14:32:57.393Z,102024.89
2022-12-31T14:35:31.491Z,102024.48
2022-12-31T14:38:04.780Z,102020.84
2022-12-31T14:40:43.971Z,102021.63
2022-12-31T14:43:49.495Z,102023.23
2022-12-31T14:46:36.626Z,102024.05
2022-12-31T14:49:47.160Z,102023.41
2022-12-31T14:52:18.036Z,102026.97
2022-12-31T14:54:46.283Z,102026.14
2022-12-31T14:57:17.753Z,102029.23
2022-12-31T15:00:00.192Z,102026.48
2022-12-31T15:02:35.631Z,102027.69
2022-12-31T15:05:16.725Z,102025.27
2022-12-31T15:07:48.182Z,102026.41
2022-12-31T15:10:25.375Z,102032.30
2022-12-31T15:13:07.338Z,102029.96
2022-12-31T15:16:02.286Z,102030.74
2022-12-31T15:19:02.853Z,102027.68
2022-12-31T15:21:34.187Z,102030.92
2022-12-31T15:24:13.339Z,102030.80
2022-12-31T15:26:58.912Z,102026.14
2022-12-31T15:29:51.557Z,102026.17
2022-12-31T15:32:25.395Z,102029.92
2022-12-31T15:35:30.010Z,102029.70
2022-12-31T15:38:15.824Z,102032.23
2022-12-31T15:40:52.445Z,102029.86
2022-12-31T15:43:44.129Z,102035.80
2022-12-31T15:46:21.188Z,102037.94
2022-12-31T15:49:04.277Z,102043.30
2022-12-31T15:52:01.615Z,102045.33
2022-12-31T15:54:42.721Z,102049.27
2022-12-31T15:57:23.023Z,102048.65
2022-12-31T15:59:58.471Z,102051.68
2022-12-31T16:02:29.282Z,102056.90
2022-12-31T16:04:57.703Z,102060.08
2022-12-31T16:07:28.493Z,102060.61
2022-12-31T16:10:00.472Z,102064.50
2022-12-31T16:12:39.409Z,102068.92
2022-12-31T16:15:22.186Z,102070.30
2022-12-31T16:18:05.522Z,102068.27
2022-12-31T16:20:40.880Z,102068.83
2022-12-31T16:23:42.065Z,102068.39
2022-12-31T16:26:12.063Z,102063.49
2022-12-31T16:28:40.450Z,102065.01
2022-12-31T16:31:17.004Z,102067.58
2022-12-31T16:33:46.555Z,102069.83
2022-12-31T16:36:20.469Z,102076.88
2022-12-31T16:38:49.327Z,102078.30
2022-12-31T16:41:19.205Z,102081.97
2022-12-31T16:43:51.039Z,102082.81
2022-12-31T16:46:38.448Z,102079.58
2022-12-31T16:49:19.092Z,102076.98
2022-12-31T16:51:47.850Z,102079.02
2022-12-31T16:54:26.272Z,102081.54
2022-12-31T16:56:54.633Z,102078.23
2022-12-31T16:59:35.720Z,102081.89
2022-12-31T17:02:16.525Z,102086.52
2022-12-31T17:04:56.101Z,102083.27
2022-12-31T17:07:26.550Z,102082.89
2022-12-31T17:10:07.028Z,102088.39
2022-12-31T17:13:08.760Z,102089.04
2022-12-31T17:15:41.656Z,102086.80
2022-12-31T17:18:20.712Z,102085.98
2022-12-31T17:20:54.600Z,102091.70
2022-12-31T17:23:32.004Z,102095.88
2022-12-31T17:26:07.492Z,102104.25
2022-12-31T17:28:48.587Z,102102.30
2022-12-31T17:31:38.408Z,102102.83
2022-12-31T17:34:12.721Z,102102.69
2022-12-31T17:36:52.209Z,102107.27
2022-12-31T17:39:23.189Z,102112.01
2022-12-31T17:41:55.889Z,102114.42
2022-12-31T17:44:28.020Z,102120.26
2022-12-31T17:46:56.370Z,102124.70
2022-12-31T17:49:30.587Z,102127.40
2022-12-31T17:51:58.978Z,102123.73
2022-12-31T17:54:27.127Z,102127.64
2022-12-31T17:56:55.331Z,102129.30
2022-12-31T17:59:26.233Z,102132.06
2022-12-31T18:01:55.076Z,102138.23
2022-12-31T18:04:23.396Z,102140.92
2022-12-31T18:06:52.029Z,102142.14
2022-12-31T18:09:22.350Z,102145.15
2022-12-31T18:11:50.570Z,102144.95
2022-12-31T18:14:18.759Z,102147.39
2022-12-31T18:16:47.295Z,102148.20
2022-12-31T18:19:45.600Z,102154.02
2022-12-31T18:22:04.695Z,102155.48
2022-12-31T18:24:33.453Z,102164.50
2022-12-31T18:27:01.626Z,102165.13
2022-12-31T18:29:29.905Z,102165.08
2022-12-31T18:32:01.036Z,102164.70
2022-12-31T18:34:29.817Z,102163.58
2022-12-31T18:36:59.457Z,102158.04
2022-12-31T18:39:27.645Z,102157.27
2022-12-31T18:41:56.437Z,102162.89
2022-12-31T18:44:25.065Z,102168.95
2022-12-31T18:46:53.316Z,102165.25
2022-12-31T18:49:21.678Z,102163.04
2022-12-31T18:51:50.058Z,102164.83
2022-12-31T18:54:18.346Z,102160.92
2022-12-31T18:56:50.221Z,102160.11
2022-12-31T18:59:20.966Z,102154.73
2022-12-31T19:01:49.553Z,102153.92
2022-12-31T19:04:26.938Z,102151.58
2022-12-31T19:06:56.999Z,102154.18
2022-12-31T19:09:45.226Z,102157.67
2022-12-31T19:12:15.418Z,102159.38
2022-12-31T19:14:43.688Z,102158.48
2022-12-31T19:17:12.020Z,102159.44
2022-12-31T19:19:40.308Z,102157.64
2022-12-31T19:22:15.053Z,102159.67
2022-12-31T19:24:43.464Z,102165.11
2022-12-31T19:27:14.890Z,102165.55
2022-12-31T19:29:43.146Z,102167.27
2022-12-31T19:32:11.891Z,102168.89
2022-12-31T19:34:40.176Z,102169.65
2022-12-31T19:37:19.553Z,102170.23
2022-12-31T19:39:48.469Z,102173.73
2022-12-31T19:42:17.511Z,102173.73
2022-12-31T19:44:45.847Z,102175.79
2022-12-31T19:47:14.482Z,102172.71
2022-12-31T19:49:43.029Z,102173.81
2022-12-31T19:52:11.384Z,102172.20
2022-12-31T19:54:39.640Z,102173.01
2022-12-31T19:57:07.952Z,102173.39
2022-12-31T19:59:36.630Z,102167.35
2022-12-31T20:02:04.982Z,102169.36
2022-12-31T20:04:33.391Z,102164.77
2022-12-31T20:07:01.722Z,102166.12
2022-12-31T20:09:30.118Z,102169.19
2022-12-31T20:11:58.573Z,102167.13
2022-12-31T20:14:27.543Z,102170.77
2022-12-31T20:16:55.903Z,102174.34
2022-12-31T20:19:24.130Z,102176.27
2022-12-31T20:21:52.401Z,102179.48
2022-12-31T20:24:20.807Z,102179.25
2022-12-31T20:26:49.114Z,102188.14
2022-12-31T20:29:17.546Z,102189.83
2022-12-31T20:31:45.735Z,102185.15
2022-12-31T20:34:14.521Z,102188.09
2022-12-31T20:36:42.962Z,102185.79
2022-12-31T20:39:11.443Z,102185.06
2022-12-31T20:41:40.191Z,102187.36
2022-12-31T20:44:09.414Z,102191.89
2022-12-31T20:46:37.746Z,102194.73
2022-12-31T20:49:06.720Z,102199.08
2022-12-31T20:51:35.461Z,102203.02
2022-12-31T20:54:06.549Z,102205.02
2022-12-31T20:56:37.516Z,102205.59
2022-12-31T20:59:07.440Z,102211.42
2022-12-31T21:02:11.682Z,102215.73
2022-12-31T21:04:26.278Z,102216.23
2022-12-31T21:06:54.994Z,102214.23
2022-12-31T21:09:23.295Z,102213.27
2022-12-31T21:11:51.645Z,102215.49
2022-12-31T21:14:19.892Z,102216.08
2022-12-31T21:16:48.349Z,102215.76
2022-12-31T21:19:17.288Z,102216.70
2022-12-31T21:21:45.731Z,102211.98
2022-12-31T21:24:17.453Z,102210.26
2022-12-31T21:26:48.696Z,102210.43
2022-12-31T21:29:16.982Z,102214.16
2022-12-31T21:31:45.173Z,102214.02
2022-12-31T21:34:13.747Z,102215.20
2022-12-31T21:36:42.056Z,102219.46
2022-12-31T21:39:10.273Z,102215.52
2022-12-31T21:41:38.949Z,102214.74
2022-12-31T21:44:07.216Z,102214.95
2022-12-31T21:46:35.677Z,102218.32
2022-12-31T21:49:04.611Z,102215.11
2022-12-31T21:51:32.872Z,102214.69
2022-12-31T21:54:01.060Z,102216.38
2022-12-31T21:56:29.742Z,102216.94
2022-12-31T21:59:00.116Z,102212.00
2022-12-31T22:01:28.601Z,102214.58
2022-12-31T22:03:57.601Z,102212.86
2022-12-31T22:06:26.374Z,102209.35
2022-12-31T22:08:56.391Z,102210.17
2022-12-31T22:11:28.376Z,102205.24
2022-12-31T22:13:59.257Z,102203.42
2022-12-31T22:16:27.547Z,102206.83
2022-12-31T22:18:56.661Z,102206.74
2022-12-31T22:21:27.400Z,102208.31
2022-12-31T22:23:57.330Z,102209.86
2022-12-31T22:26:28.150Z,102206.03
2022-12-31T22:28:56.636Z,102204.84
2022-12-31T22:31:27.647Z,102206.02
2022-12-31T22:33:56.256Z,102208.31
2022-12-31T22:36:26.513Z,102205.96
2022-12-31T22:38:57.169Z,102204.73
2022-12-31T22:41:27.859Z,102208.15
2022-12-31T22:44:03.766Z,102206.08
2022-12-31T22:46:34.481Z,102207.54
2022-12-31T22:49:04.812Z,102213.65
2022-12-31T22:51:57.198Z,102217.02
2022-12-31T22:54:22.831Z,102216.61
2022-12-31T22:56:51.112Z,102222.08
2022-12-31T22:59:19.651Z,102221.78
2022-12-31T23:01:48.111Z,102218.85
2022-12-31T23:04:16.368Z,102219.09
2022-12-31T23:06:45.206Z,102216.28
2022-12-31T23:09:15.965Z,102215.77
2022-12-31T23:11:44.709Z,102206.78
2022-12-31T23:14:17.738Z,102207.33
2022-12-31T23:16:46.443Z,102200.56
2022-12-31T23:19:16.219Z,102198.38
2022-12-31T23:21:45.236Z,102196.91
2022-12-31T23:24:20.143Z,102197.79
2022-12-31T23:26:51.149Z,102201.83
2022-12-31T23:29:19.339Z,102195.45
2022-12-31T23:31:47.617Z,102194.09
2022-12-31T23:34:16.161Z,102190.23
2022-12-31T23:36:44.756Z,102185.58
2022-12-31T23:39:13.235Z,102182.34
2022-12-31T23:41:41.946Z,102184.88
2022-12-31T23:44:11.177Z,102183.42
2022-12-31T23:46:40.279Z,102178.20
2022-12-31T23:49:09.181Z,102177.46
2022-12-31T23:51:37.795Z,102175.26
2022-12-31T23:54:06.562Z,102170.31
2022-12-31T23:56:34.920Z,102168.56
2022-12-31T23:59:03.274Z,102165.55
